Time;durP1;ratioP1;P1;durP2;ratioP2;P2;SDS_P1;SDS_P2;PMS_P1;PMS_P2;Temp;Humidity;BMP_temperature;BMP_pressure;BME280_temperature;BME280_humidity;BME280_pressure;Samples;Min_cycle;Max_cycle;Signal;HPM_P1;HPM_P2
2023/01/18 00:00:04;;;;;;;34.97;18.20;;;;;;;-4.24;100.00;98061.50;5006173;28;20071;-72
2023/01/18 00:02:29;;;;;;;22.60;17.00;;;;;;;-4.29;100.00;98065.91;5006234;28;20211;-72
2023/01/18 00:04:55;;;;;;;25.38;17.17;;;;;;;-4.26;100.00;98073.50;5007280;28;20033;-72
2023/01/18 00:07:20;;;;;;;32.97;18.85;;;;;;;-4.43;100.00;98055.22;5007440;28;20029;-73
2023/01/18 00:09:46;;;;;;;30.27;19.40;;;;;;;-4.36;100.00;98061.81;5008399;28;20800;-72
2023/01/18 00:12:11;;;;;;;31.40;19.30;;;;;;;-4.42;100.00;98059.44;5007201;28;20062;-72
2023/01/18 00:14:36;;;;;;;36.22;19.20;;;;;;;-4.40;100.00;98070.50;5007733;28;20421;-72
2023/01/18 00:17:02;;;;;;;28.35;18.60;;;;;;;-4.44;100.00;98068.06;4994241;28;20856;-72
2023/01/18 00:19:27;;;;;;;27.85;16.00;;;;;;;-4.56;100.00;98058.97;5021477;28;20024;-72
2023/01/18 00:21:53;;;;;;;26.30;17.15;;;;;;;-4.48;100.00;98067.31;5006250;28;20056;-73
2023/01/18 00:24:22;;;;;;;27.33;15.60;;;;;;;-4.53;100.00;98069.16;5006333;28;20859;-72
2023/01/18 00:26:48;;;;;;;31.30;16.80;;;;;;;-4.54;100.00;98071.75;5003711;28;20029;-73
2023/01/18 00:29:14;;;;;;;26.38;16.77;;;;;;;-4.50;100.00;98081.91;4983824;28;20025;-73
2023/01/18 00:31:40;;;;;;;24.40;16.42;;;;;;;-4.49;100.00;98083.56;4982142;28;20090;-73
2023/01/18 00:34:05;;;;;;;31.75;15.60;;;;;;;-4.55;100.00;98075.19;4988328;28;20934;-73
2023/01/18 00:36:31;;;;;;;31.70;15.82;;;;;;;-4.59;100.00;98074.44;5002755;28;20025;-72
2023/01/18 00:38:57;;;;;;;22.52;15.70;;;;;;;-4.56;100.00;98079.47;4981124;28;20036;-72
2023/01/18 00:41:23;;;;;;;26.92;15.95;;;;;;;-4.57;100.00;98075.25;5006463;28;20831;-72
2023/01/18 00:43:49;;;;;;;24.55;15.88;;;;;;;-4.55;100.00;98085.44;5006590;28;20053;-72
2023/01/18 00:46:17;;;;;;;21.30;15.52;;;;;;;-4.62;100.00;98074.53;4988876;28;20872;-72
2023/01/18 00:48:43;;;;;;;29.65;16.55;;;;;;;-4.72;100.00;98067.97;4986787;28;20031;-72
2023/01/18 00:51:13;;;;;;;21.23;16.15;;;;;;;-4.64;100.00;98081.44;5008348;28;20021;-72
2023/01/18 00:53:39;;;;;;;27.42;15.68;;;;;;;-4.61;100.00;98091.59;4996090;28;20797;-71
2023/01/18 00:56:09;;;;;;;23.63;15.82;;;;;;;-4.70;100.00;98077.28;4996037;28;20036;-72
2023/01/18 00:58:36;;;;;;;29.33;17.27;;;;;;;-4.81;100.00;98058.00;5011125;28;20851;-72
2023/01/18 01:01:02;;;;;;;24.65;14.82;;;;;;;-4.70;100.00;98082.41;5017408;28;20029;-72
2023/01/18 01:03:27;;;;;;;22.27;15.35;;;;;;;-5.54;100.00;97946.50;5004034;28;20144;-72
2023/01/18 01:08:37;;;;;;;23.45;15.45;;;;;;;-4.65;100.00;98100.22;5001289;28;20914;-72
2023/01/18 01:11:08;;;;;;;23.25;15.20;;;;;;;-4.59;100.00;98109.47;5003512;28;20025;-72
2023/01/18 01:27:14;;;;;;;27.60;14.30;;;;;;;-4.82;100.00;98104.94;4990447;28;20887;-71
2023/01/18 01:29:39;;;;;;;24.00;14.35;;;;;;;-4.76;100.00;98125.28;5002082;28;20025;-71
2023/01/18 01:32:05;;;;;;;21.70;14.60;;;;;;;-4.88;100.00;98143.53;5005707;28;20830;-71
2023/01/18 01:34:31;;;;;;;23.65;15.50;;;;;;;-4.84;100.00;98119.53;4985899;28;20063;-71
2023/01/18 01:37:00;;;;;;;27.20;15.90;;;;;;;-4.79;100.00;98133.88;5004383;28;20974;-71
2023/01/18 01:39:25;;;;;;;23.85;15.93;;;;;;;-4.81;100.00;98132.25;5002061;28;20051;-72
2023/01/18 01:41:51;;;;;;;24.48;15.40;;;;;;;-4.89;100.00;98141.81;5003089;28;20025;-72
2023/01/18 01:44:16;;;;;;;19.10;14.55;;;;;;;-4.82;100.00;98141.63;5004470;28;20025;-72
2023/01/18 01:46:56;;;;;;;25.08;16.27;;;;;;;-4.83;100.00;98141.66;5003607;28;20075;-71
2023/01/18 01:49:25;;;;;;;28.10;15.80;;;;;;;-4.84;100.00;98140.00;4994133;28;20053;-72
2023/01/18 01:52:03;;;;;;;27.17;15.93;;;;;;;-4.85;100.00;98148.56;5006173;28;20098;-71
2023/01/18 01:54:39;;;;;;;28.67;15.70;;;;;;;-4.94;100.00;98141.13;4980386;28;20056;-71
2023/01/18 01:57:34;;;;;;;25.95;16.55;;;;;;;-4.95;100.00;98139.44;4998172;28;20052;-71
2023/01/18 02:00:08;;;;;;;28.15;15.88;;;;;;;-4.88;100.00;98159.72;4998608;28;20044;-71
2023/01/18 02:02:34;;;;;;;23.00;15.63;;;;;;;-5.15;100.00;98124.56;4992353;28;20076;-71
2023/01/18 02:05:00;;;;;;;24.02;15.95;;;;;;;-4.88;100.00;98164.00;5007173;28;20100;-71
2023/01/18 02:07:25;;;;;;;24.30;15.55;;;;;;;-5.07;100.00;98132.06;4978849;28;20048;-70
2023/01/18 02:09:51;;;;;;;29.08;17.85;;;;;;;-5.37;100.00;98088.41;5007395;28;20029;-70
2023/01/18 02:12:17;;;;;;;25.85;16.85;;;;;;;-4.95;100.00;98152.22;5009300;28;20082;-71
2023/01/18 02:14:42;;;;;;;26.83;17.58;;;;;;;-4.90;100.00;98166.59;4991846;28;20236;-71
2023/01/18 02:17:31;;;;;;;26.13;17.10;;;;;;;-4.86;100.00;98173.31;5007872;28;20032;-71
2023/01/18 02:20:05;;;;;;;22.27;14.63;;;;;;;-4.85;100.00;98169.03;4978464;28;20040;-71
2023/01/18 02:22:46;;;;;;;21.42;14.98;;;;;;;-4.87;100.00;98170.81;5008000;28;20136;-71
2023/01/18 02:25:37;;;;;;;21.92;15.90;;;;;;;-4.94;100.00;98159.88;5007349;28;20841;-70
2023/01/18 02:28:05;;;;;;;27.00;13.77;;;;;;;-4.95;100.00;98154.78;5000435;28;20032;-70
2023/01/18 02:30:36;;;;;;;21.58;13.35;;;;;;;-4.93;100.00;98166.66;5008474;28;20918;-71
2023/01/18 02:33:14;;;;;;;18.40;13.35;;;;;;;-4.98;100.00;98154.88;4974290;28;20056;-70
2023/01/18 02:35:45;;;;;;;19.15;12.80;;;;;;;-4.93;100.00;98171.78;5009251;28;20040;-70
2023/01/18 02:38:26;;;;;;;23.95;14.07;;;;;;;-4.99;100.00;98156.56;5009332;28;20033;-71
2023/01/18 02:41:16;;;;;;;22.17;14.15;;;;;;;-4.92;100.00;98172.63;4979015;28;20021;-70
2023/01/18 02:46:34;;;;;;;23.20;15.18;;;;;;;-5.20;100.00;98134.06;4993769;28;20083;-70
2023/01/18 02:49:12;;;;;;;20.67;13.45;;;;;;;-4.99;100.00;98169.38;4991660;28;20152;-70
2023/01/18 02:51:37;;;;;;;24.58;13.88;;;;;;;-4.93;100.00;98181.19;4987710;28;20095;-70
2023/01/18 02:54:07;;;;;;;26.23;13.48;;;;;;;-4.99;100.00;98171.94;5008169;28;20032;-70
2023/01/18 02:56:45;;;;;;;20.45;13.50;;;;;;;-4.90;100.00;98188.81;5006245;28;20024;-70
2023/01/18 02:59:21;;;;;;;24.48;13.10;;;;;;;-4.91;100.00;98179.44;4995035;28;20028;-70
2023/01/18 03:01:49;;;;;;;20.05;12.70;;;;;;;-5.09;100.00;98146.59;4975435;28;20032;-70
2023/01/18 03:04:21;;;;;;;18.63;12.88;;;;;;;-4.89;100.00;98188.75;5005339;28;20029;-70
2023/01/18 03:06:50;;;;;;;21.90;13.32;;;;;;;-5.38;100.00;98104.66;5009533;28;20110;-70
2023/01/18 03:09:17;;;;;;;22.08;13.13;;;;;;;-4.95;100.00;98183.78;4990946;28;20068;-70
2023/01/18 03:11:55;;;;;;;18.15;12.68;;;;;;;-5.03;100.00;98169.47;4989415;28;20065;-70
2023/01/18 03:14:43;;;;;;;27.10;12.52;;;;;;;-5.04;100.00;98180.63;4989117;28;20032;-70
2023/01/18 03:17:18;;;;;;;23.23;13.77;;;;;;;-4.96;100.00;98199.19;5005062;28;20464;-70
2023/01/18 03:20:06;;;;;;;23.27;13.40;;;;;;;-4.96;100.00;98199.19;5005524;28;20043;-70
2023/01/18 03:25:33;;;;;;;22.58;14.15;;;;;;;-4.99;100.00;98192.41;4992746;28;20965;-70
2023/01/18 03:33:45;;;;;;;27.65;15.00;;;;;;;-5.56;100.00;98087.19;4992986;28;20098;-70
2023/01/18 03:36:21;;;;;;;26.75;16.30;;;;;;;-4.90;100.00;98204.19;4982812;28;20036;-70
2023/01/18 03:38:50;;;;;;;25.90;14.80;;;;;;;-4.91;100.00;98199.91;4989962;28;20053;-70
2023/01/18 03:41:16;;;;;;;29.73;16.45;;;;;;;-4.91;100.00;98205.03;4996963;28;20037;-70
2023/01/18 03:43:42;;;;;;;30.98;16.30;;;;;;;-4.90;100.00;98211.84;5006548;28;20485;-70
2023/01/18 03:46:07;;;;;;;25.10;15.98;;;;;;;-4.93;100.00;98201.66;4989634;28;20035;-70
2023/01/18 03:48:33;;;;;;;29.58;15.45;;;;;;;-4.88;100.00;98210.09;5006713;28;20797;-70
2023/01/18 03:51:21;;;;;;;24.48;16.17;;;;;;;-4.85;100.00;98212.56;5006475;28;20063;-70
2023/01/18 03:54:14;;;;;;;23.98;15.15;;;;;;;-4.85;100.00;98215.13;5007242;28;20032;-70
2023/01/18 03:56:49;;;;;;;32.88;17.23;;;;;;;-4.89;100.00;98208.41;5006140;28;20025;-70
2023/01/18 03:59:15;;;;;;;27.95;17.48;;;;;;;-4.91;100.00;98210.16;4989898;28;20029;-70
2023/01/18 04:01:43;;;;;;;25.75;17.23;;;;;;;-4.95;100.00;98208.53;5007205;28;20843;-70
2023/01/18 04:04:09;;;;;;;34.70;16.77;;;;;;;-4.94;100.00;98211.09;5003450;28;20022;-70
2023/01/18 04:06:35;;;;;;;27.15;15.90;;;;;;;-4.88;100.00;98220.31;5004674;28;20064;-70
2023/01/18 04:09:00;;;;;;;32.28;18.10;;;;;;;-4.89;100.00;98234.84;5020807;28;20901;-70
2023/01/18 04:11:26;;;;;;;21.27;15.43;;;;;;;-4.92;100.00;98232.34;5008186;28;20914;-70
2023/01/18 04:13:51;;;;;;;29.60;15.95;;;;;;;-5.04;100.00;98214.75;4989177;28;20955;-70
2023/01/18 04:16:16;;;;;;;34.70;16.38;;;;;;;-5.22;100.00;98202.34;5007136;28;20028;-70
2023/01/18 04:18:42;;;;;;;25.15;16.60;;;;;;;-4.94;100.00;98241.81;5006900;28;20025;-70
2023/01/18 04:21:07;;;;;;;29.75;16.38;;;;;;;-4.96;100.00;98240.97;5013902;28;20770;-70
2023/01/18 04:23:33;;;;;;;29.48;17.10;;;;;;;-5.01;100.00;98234.28;4996249;28;20017;-70
2023/01/18 04:25:58;;;;;;;24.92;16.48;;;;;;;-5.31;100.00;98179.53;5014113;28;20132;-70
2023/01/18 04:28:26;;;;;;;21.08;15.95;;;;;;;-5.05;100.00;98225.00;5012586;28;20040;-70
2023/01/18 04:30:56;;;;;;;26.33;17.48;;;;;;;-4.95;100.00;98252.06;5007122;28;20025;-70
2023/01/18 04:33:22;;;;;;;26.95;17.65;;;;;;;-4.98;100.00;98234.22;4987185;28;20029;-70
2023/01/18 04:35:48;;;;;;;25.50;16.17;;;;;;;-4.99;100.00;98242.78;4990134;28;20132;-70
2023/01/18 04:38:14;;;;;;;27.45;16.05;;;;;;;-5.30;100.00;98186.31;4988784;28;20135;-70
2023/01/18 04:40:40;;;;;;;32.38;18.63;;;;;;;-4.95;100.00;98247.78;4989878;28;20080;-70
2023/01/18 04:43:05;;;;;;;38.63;19.00;;;;;;;-5.09;100.00;98223.38;4997786;28;20931;-70
2023/01/18 04:45:31;;;;;;;33.53;18.60;;;;;;;-4.90;100.00;98252.81;5006617;28;20029;-70
2023/01/18 04:47:56;;;;;;;32.17;18.13;;;;;;;-4.86;100.00;98254.41;5005497;28;20036;-70
2023/01/18 04:50:22;;;;;;;27.30;18.35;;;;;;;-4.81;100.00;98262.84;5006750;28;20032;-70
2023/01/18 04:52:48;;;;;;;32.58;20.02;;;;;;;-4.80;100.00;98260.22;5006043;28;20140;-70
2023/01/18 04:55:14;;;;;;;25.15;18.55;;;;;;;-4.76;100.00;98263.56;5006191;28;20894;-70
2023/01/18 04:57:41;;;;;;;32.65;19.75;;;;;;;-4.78;100.00;98262.75;4990277;28;20028;-71
2023/01/18 05:00:08;;;;;;;31.38;16.77;;;;;;;-4.77;100.00;98265.31;5006182;28;20025;-71
2023/01/18 05:02:33;;;;;;;25.55;17.80;;;;;;;-4.84;100.00;98263.75;5005893;28;20033;-71
2023/01/18 05:04:58;;;;;;;32.05;19.25;;;;;;;-4.93;100.00;98253.72;5005592;28;20227;-71
2023/01/18 05:07:24;;;;;;;31.58;18.88;;;;;;;-4.77;100.00;98278.09;5003777;28;20968;-71
2023/01/18 05:09:50;;;;;;;25.98;19.30;;;;;;;-5.02;100.00;98232.59;4998355;28;20064;-71
2023/01/18 05:12:15;;;;;;;37.22;21.38;;;;;;;-4.78;100.00;98268.72;4978320;28;20026;-71
2023/01/18 05:14:41;;;;;;;27.40;19.70;;;;;;;-4.74;100.00;98277.19;5004671;28;20017;-70
2023/01/18 05:17:06;;;;;;;29.75;19.77;;;;;;;-4.70;100.00;98291.59;5004441;28;20021;-70
2023/01/18 05:19:32;;;;;;;28.80;20.58;;;;;;;-4.75;100.00;98278.91;5007014;28;20168;-71
2023/01/18 05:21:57;;;;;;;32.33;21.10;;;;;;;-4.69;100.00;98288.16;5005140;28;20903;-71
2023/01/18 05:24:23;;;;;;;30.58;21.92;;;;;;;-4.65;100.00;98294.88;5005968;28;20941;-71
2023/01/18 05:26:48;;;;;;;31.48;20.67;;;;;;;-4.66;100.00;98293.19;5006039;28;20029;-71
2023/01/18 05:29:14;;;;;;;40.38;23.08;;;;;;;-4.64;100.00;98296.59;4999388;28;20033;-71
2023/01/18 05:31:39;;;;;;;35.15;22.35;;;;;;;-4.71;100.00;98285.63;5005242;28;21034;-71
2023/01/18 05:34:04;;;;;;;39.42;24.58;;;;;;;-4.62;100.00;98305.06;5005295;28;20040;-71
2023/01/18 05:36:30;;;;;;;47.95;30.10;;;;;;;-4.60;100.00;98316.13;5004264;28;20060;-71
2023/01/18 05:38:55;;;;;;;54.97;36.10;;;;;;;-4.65;100.00;98313.66;5009427;28;20060;-71
2023/01/18 05:41:21;;;;;;;59.50;37.88;;;;;;;-4.64;100.00;98322.19;5010322;28;20032;-71
2023/01/18 05:43:46;;;;;;;56.80;38.25;;;;;;;-4.65;100.00;98325.63;5002575;28;20074;-71
2023/01/18 05:46:12;;;;;;;41.08;30.33;;;;;;;-4.65;100.00;98325.63;4991721;28;20170;-71
2023/01/18 05:48:37;;;;;;;46.83;33.28;;;;;;;-4.69;100.00;98324.00;4985944;28;20796;-71
2023/01/18 05:51:10;;;;;;;41.90;28.13;;;;;;;-4.69;100.00;98319.72;5009431;28;20840;-71
2023/01/18 05:53:35;;;;;;;40.85;24.15;;;;;;;-4.69;100.00;98324.84;4982437;28;20030;-71
2023/01/18 05:56:04;;;;;;;38.55;25.65;;;;;;;-4.62;100.00;98333.22;5005664;28;20167;-71
2023/01/18 05:58:29;;;;;;;31.58;22.05;;;;;;;-4.52;100.00;98341.53;4982840;28;20067;-71
2023/01/18 06:00:55;;;;;;;39.22;24.60;;;;;;;-4.55;100.00;98334.78;5005948;28;20956;-71
2023/01/18 06:03:21;;;;;;;38.88;23.80;;;;;;;-4.51;100.00;98349.22;5009734;28;20285;-71
2023/01/18 06:05:47;;;;;;;42.15;24.92;;;;;;;-4.47;100.00;98349.97;4992530;28;20029;-71
2023/01/18 06:08:13;;;;;;;34.28;22.27;;;;;;;-4.51;100.00;98345.78;5004542;28;20275;-71
2023/01/18 06:10:39;;;;;;;32.30;22.25;;;;;;;-4.45;100.00;98354.19;4994425;28;20048;-71
2023/01/18 06:13:05;;;;;;;36.88;23.90;;;;;;;-4.42;100.00;98359.22;5009984;28;20083;-71
2023/01/18 06:15:31;;;;;;;34.20;21.80;;;;;;;-4.51;100.00;98338.13;5008981;28;20064;-70
2023/01/18 06:17:58;;;;;;;36.28;21.77;;;;;;;-4.46;100.00;98342.25;5008595;28;20023;-71
2023/01/18 06:20:24;;;;;;;32.53;22.55;;;;;;;-4.35;100.00;98360.78;5000563;28;20036;-71
2023/01/18 06:22:49;;;;;;;34.90;23.73;;;;;;;-4.36;100.00;98358.28;5002140;28;20036;-71
2023/01/18 06:25:15;;;;;;;38.53;22.85;;;;;;;-4.42;100.00;98359.22;5004335;28;20045;-71
2023/01/18 06:27:41;;;;;;;33.08;23.20;;;;;;;-4.38;100.00;98360.84;5005970;28;20082;-71
2023/01/18 06:30:09;;;;;;;29.85;22.48;;;;;;;-4.31;100.00;98371.78;5002576;28;20032;-71
2023/01/18 06:32:35;;;;;;;28.23;19.77;;;;;;;-4.30;100.00;98374.34;4989525;28;20327;-71
2023/01/18 06:35:00;;;;;;;28.58;20.30;;;;;;;-4.33;100.00;98371.84;4988655;28;20021;-71
2023/01/18 06:37:26;;;;;;;28.17;20.40;;;;;;;-4.37;100.00;98377.06;5006905;28;20916;-71
2023/01/18 06:39:51;;;;;;;28.05;18.95;;;;;;;-4.45;100.00;98374.69;5006966;28;20904;-71
2023/01/18 06:42:17;;;;;;;26.80;19.50;;;;;;;-4.52;100.00;98375.69;4989197;28;20061;-71
2023/01/18 06:44:42;;;;;;;34.95;20.30;;;;;;;-4.51;100.00;98387.63;4989482;28;20110;-72
2023/01/18 06:47:08;;;;;;;34.53;20.88;;;;;;;-4.63;100.00;98371.72;4995833;28;20909;-71
2023/01/18 06:49:33;;;;;;;31.33;17.45;;;;;;;-4.52;100.00;98398.75;4995006;28;20083;-71
2023/01/18 06:51:58;;;;;;;26.08;19.30;;;;;;;-4.61;100.00;98393.84;4990223;28;20087;-72
2023/01/18 06:54:24;;;;;;;28.33;19.02;;;;;;;-4.70;100.00;98394.88;4985826;28;20096;-72
2023/01/18 06:56:49;;;;;;;28.38;18.67;;;;;;;-4.74;100.00;98405.22;5006165;28;20044;-72
2023/01/18 06:59:15;;;;;;;28.50;19.70;;;;;;;-4.72;100.00;98409.44;5008790;28;20033;-71
2023/01/18 07:01:41;;;;;;;30.48;19.88;;;;;;;-4.78;100.00;98411.28;5008585;28;20215;-72
2023/01/18 07:04:06;;;;;;;30.65;21.45;;;;;;;-4.63;100.00;98421.22;5007598;28;20025;-71
2023/01/18 07:06:32;;;;;;;35.97;22.98;;;;;;;-4.67;100.00;98409.34;5008804;28;20063;-71
2023/01/18 07:08:57;;;;;;;33.97;21.10;;;;;;;-4.65;100.00;98408.44;4990355;28;20028;-71
2023/01/18 07:11:23;;;;;;;35.95;23.85;;;;;;;-4.51;100.00;98433.75;5007729;28;20029;-71
2023/01/18 07:13:48;;;;;;;33.70;22.27;;;;;;;-4.48;100.00;98426.00;4990167;28;20135;-71
2023/01/18 07:16:17;;;;;;;33.17;21.10;;;;;;;-4.46;100.00;98437.03;5009462;28;20047;-71
2023/01/18 07:18:47;;;;;;;36.30;20.75;;;;;;;-4.52;100.00;98438.91;5023144;28;20025;-71
2023/01/18 07:21:14;;;;;;;36.75;24.00;;;;;;;-4.73;100.00;98415.44;4990178;28;20025;-71
2023/01/18 07:23:40;;;;;;;39.38;23.50;;;;;;;-4.55;100.00;98450.06;4990578;28;20031;-72
2023/01/18 07:26:08;;;;;;;37.42;23.70;;;;;;;-4.62;100.00;98428.00;4986583;28;20083;-72
2023/01/18 07:28:35;;;;;;;34.38;23.45;;;;;;;-4.63;100.00;98439.97;4981077;28;20070;-72
2023/01/18 07:31:00;;;;;;;34.30;22.67;;;;;;;-4.55;100.00;98447.50;5005441;28;20044;-71
2023/01/18 07:33:26;;;;;;;39.65;26.33;;;;;;;-4.53;100.00;98445.78;4996831;28;20132;-71
2023/01/18 07:35:53;;;;;;;35.30;24.98;;;;;;;-4.33;100.00;98471.81;4989741;28;20140;-71
2023/01/18 07:38:19;;;;;;;34.88;25.17;;;;;;;-4.27;100.00;98470.81;5007816;28;20036;-72
2023/01/18 07:40:45;;;;;;;40.35;26.23;;;;;;;-4.31;100.00;98458.94;4990032;28;20099;-72
2023/01/18 07:43:11;;;;;;;42.78;27.67;;;;;;;-4.27;100.00;98461.41;4991207;28;20927;-72
2023/01/18 07:45:37;;;;;;;36.70;27.65;;;;;;;-4.17;100.00;98475.69;5014505;28;20040;-72
2023/01/18 07:48:03;;;;;;;35.00;24.77;;;;;;;-4.32;100.00;98452.97;4991504;28;20025;-71
2023/01/18 07:50:29;;;;;;;35.88;23.30;;;;;;;-4.19;100.00;98477.44;5013176;28;20021;-72
2023/01/18 07:52:55;;;;;;;40.35;25.55;;;;;;;-4.17;100.00;98472.28;4996031;28;20016;-72
2023/01/18 07:55:21;;;;;;;40.78;24.33;;;;;;;-4.21;100.00;98463.81;5009439;28;20028;-71
2023/01/18 07:57:46;;;;;;;40.88;24.60;;;;;;;-4.26;100.00;98460.50;5008352;28;20021;-71
2023/01/18 08:00:13;;;;;;;38.15;26.15;;;;;;;-4.10;100.00;98483.25;5009832;28;20064;-72
2023/01/18 08:02:39;;;;;;;38.67;25.02;;;;;;;-4.00;100.00;98497.53;4990203;28;20032;-72
2023/01/18 08:05:05;;;;;;;40.45;25.75;;;;;;;-3.99;100.00;98494.13;4987091;28;20870;-71
2023/01/18 08:07:35;;;;;;;35.88;25.70;;;;;;;-3.91;100.00;98505.03;5008425;28;20037;-72
2023/01/18 08:10:01;;;;;;;37.90;25.63;;;;;;;-3.87;100.00;98506.66;5007040;28;20227;-71
2023/01/18 08:12:26;;;;;;;38.05;27.20;;;;;;;-3.80;100.00;98503.91;5008094;28;20037;-72
2023/01/18 08:14:52;;;;;;;37.40;26.65;;;;;;;-3.78;100.00;98494.44;4986501;28;20137;-72
2023/01/18 08:17:20;;;;;;;35.13;26.55;;;;;;;-3.76;100.00;98484.16;4991562;28;20849;-72
2023/01/18 08:19:45;;;;;;;40.65;28.13;;;;;;;-3.51;100.00;98517.75;5008625;28;20043;-76
2023/01/18 08:22:11;;;;;;;45.13;27.30;;;;;;;-3.55;100.00;98493.06;4994328;28;20021;-72
2023/01/18 08:24:36;;;;;;;48.58;28.95;;;;;;;-3.43;100.00;98509.00;5009432;28;21014;-72
2023/01/18 08:27:01;;;;;;;43.50;29.83;;;;;;;-3.34;100.00;98513.03;5009533;28;20052;-72
2023/01/18 08:29:27;;;;;;;39.58;27.25;;;;;;;-3.29;100.00;98517.19;5009535;28;20025;-72
2023/01/18 08:31:53;;;;;;;36.90;26.15;;;;;;;-3.48;100.00;98482.59;5009465;28;20147;-72
2023/01/18 08:34:18;;;;;;;34.05;23.63;;;;;;;-3.16;100.00;98522.84;5009274;28;20063;-72
2023/01/18 08:36:44;;;;;;;36.42;25.08;;;;;;;-3.16;100.00;98522.84;5002125;28;20021;-72
2023/01/18 08:39:11;;;;;;;35.40;23.25;;;;;;;-3.08;100.00;98537.16;5008378;28;20188;-72
2023/01/18 08:41:37;;;;;;;30.73;23.40;;;;;;;-3.08;100.00;98526.91;5010235;28;20565;-72
2023/01/18 08:44:02;;;;;;;33.70;23.05;;;;;;;-3.06;100.00;98534.56;4989591;28;20025;-72
2023/01/18 08:46:28;;;;;;;35.22;24.25;;;;;;;-3.10;100.00;98528.69;4990493;28;20037;-72
2023/01/18 08:48:56;;;;;;;30.95;23.05;;;;;;;-3.30;100.00;98487.25;5002873;28;20931;-72
2023/01/18 08:51:22;;;;;;;35.58;22.15;;;;;;;-2.90;100.00;98553.84;5007685;28;20217;-72
2023/01/18 08:53:53;;;;;;;32.00;23.33;;;;;;;-3.08;100.00;98530.38;5008502;28;20053;-72
2023/01/18 08:56:19;;;;;;;30.70;22.38;;;;;;;-2.89;100.00;98541.84;5006860;28;20929;-72
2023/01/18 08:58:46;;;;;;;33.05;23.65;;;;;;;-3.10;100.00;98486.75;4989521;28;20132;-72
2023/01/18 09:01:11;;;;;;;34.65;22.45;;;;;;;-2.61;100.00;98563.34;5007507;28;20021;-72
2023/01/18 09:03:37;;;;;;;34.80;23.08;;;;;;;-2.61;100.00;98548.78;4989321;28;20044;-72
2023/01/18 09:06:06;;;;;;;35.08;24.60;;;;;;;-2.73;100.00;98522.56;5007733;28;20787;-72
2023/01/18 09:08:35;;;;;;;30.10;23.40;;;;;;;-2.47;100.00;98571.53;5002474;28;20534;-72
2023/01/18 09:11:05;;;;;;;32.72;22.63;;;;;;;-2.91;100.00;98487.94;5004605;28;20056;-72
2023/01/18 09:13:31;;;;;;;36.13;22.35;;;;;;;-2.45;100.00;98559.47;5006517;28;20025;-73
2023/01/18 09:16:00;;;;;;;29.25;21.98;;;;;;;-2.45;100.00;98556.06;5009077;28;20087;-72
2023/01/18 09:18:26;;;;;;;32.75;21.23;;;;;;;-2.43;100.00;98557.69;5007190;28;20883;-72
2023/01/18 09:20:53;;;;;;;34.17;21.45;;;;;;;-2.64;100.00;98537.75;4989777;28;20036;-72
2023/01/18 09:23:19;;;;;;;32.70;21.50;;;;;;;-2.30;100.00;98594.22;5006844;28;20056;-72
2023/01/18 09:25:44;;;;;;;30.58;21.55;;;;;;;-2.47;100.00;98560.41;4983206;28;20813;-72
2023/01/18 09:28:11;;;;;;;32.83;21.95;;;;;;;-2.21;100.00;98594.78;5005116;28;20021;-73
2023/01/18 09:30:37;;;;;;;27.88;20.77;;;;;;;-2.21;100.00;98589.66;5007148;28;20936;-72
2023/01/18 09:33:03;;;;;;;28.17;22.15;;;;;;;-2.16;100.00;98600.63;5006479;28;20032;-72
2023/01/18 09:35:29;;;;;;;34.80;22.73;;;;;;;-2.08;100.00;98611.56;5004761;28;20083;-72
2023/01/18 09:37:54;;;;;;;29.30;21.50;;;;;;;-2.11;100.00;98600.53;5005866;28;20093;-72
2023/01/18 09:40:22;;;;;;;29.40;20.95;;;;;;;-2.17;100.00;98588.69;5021899;28;20115;-72
2023/01/18 09:42:50;;;;;;;26.60;20.63;;;;;;;-1.92;100.00;98623.97;4988730;28;20111;-72
2023/01/18 09:45:27;;;;;;;32.25;22.48;;;;;;;-1.92;100.00;98621.41;5006908;28;20286;-72
2023/01/18 09:47:59;;;;;;;30.02;21.77;;;;;;;-1.90;100.00;98624.78;5006445;28;20038;-72
2023/01/18 09:50:24;;;;;;;28.67;20.88;;;;;;;-1.92;100.00;98621.41;5007880;28;20094;-73
2023/01/18 09:53:15;;;;;;;36.40;22.55;;;;;;;-1.82;100.00;98628.81;4989931;28;20029;-73
2023/01/18 09:55:59;;;;;;;31.50;21.60;;;;;;;-1.81;100.00;98632.22;5003607;28;20205;-72
2023/01/18 09:58:58;;;;;;;31.35;21.98;;;;;;;-1.72;100.00;98639.69;4987799;28;20188;-72
2023/01/18 10:01:27;;;;;;;32.75;21.85;;;;;;;-1.76;100.00;98625.25;5004547;28;20048;-72
2023/01/18 10:03:55;;;;;;;28.73;19.70;;;;;;;-1.96;100.00;98581.22;4987703;28;20128;-72
2023/01/18 10:06:28;;;;;;;35.45;20.80;;;;;;;-1.59;100.00;98631.56;5012578;28;20025;-72
2023/01/18 10:08:55;;;;;;;31.98;20.77;;;;;;;-1.50;100.00;98638.16;4990441;28;20025;-73
2023/01/18 10:11:30;;;;;;;30.35;21.05;;;;;;;-1.39;100.00;98633.53;5006073;28;20021;-72
2023/01/18 10:14:02;;;;;;;28.98;20.75;;;;;;;-1.32;100.00;98629.88;5007244;28;20029;-72
2023/01/18 10:16:36;;;;;;;34.55;20.52;;;;;;;-1.20;100.00;98629.50;4989319;28;20039;-71
2023/01/18 10:19:02;;;;;;;38.35;18.98;;;;;;;-1.13;100.00;98630.16;5006293;28;20028;-71
2023/01/18 10:22:06;;;;;;;31.90;19.77;;;;;;;-0.91;100.00;98650.94;4987884;28;20029;-72
2023/01/18 10:24:38;;;;;;;29.27;19.83;;;;;;;-0.88;100.00;98641.34;4990223;28;20090;-72
2023/01/18 10:27:24;;;;;;;25.77;17.70;;;;;;;-0.75;100.00;98639.22;5004112;28;20071;-70
2023/01/18 10:29:53;;;;;;;26.40;17.67;;;;;;;-0.66;100.00;98646.63;5008706;28;20960;-72
2023/01/18 10:32:20;;;;;;;23.58;17.30;;;;;;;-0.64;100.00;98637.09;5009518;28;20021;-71
2023/01/18 10:34:50;;;;;;;27.08;19.33;;;;;;;-0.52;100.00;98644.44;4992155;28;20029;-70
2023/01/18 10:37:26;;;;;;;33.33;18.23;;;;;;;-0.39;100.00;98650.00;5010113;28;20139;-71
2023/01/18 10:40:04;;;;;;;31.35;18.60;;;;;;;-0.39;100.00;98648.28;5009117;28;20056;-72
2023/01/18 10:42:44;;;;;;;23.67;17.02;;;;;;;-0.51;100.00;98615.19;5010722;28;20401;-80
2023/01/18 10:45:21;;;;;;;25.45;17.27;;;;;;;-0.21;100.00;98659.72;4993154;28;20040;-71
2023/01/18 10:47:48;;;;;;;24.67;17.30;;;;;;;-0.22;100.00;98652.84;4994534;28;20753;-71
2023/01/18 10:50:34;;;;;;;23.55;16.42;;;;;;;-0.09;100.00;98659.25;4993145;28;20017;-70
2023/01/18 10:53:32;;;;;;;26.23;16.42;;;;;;;0.04;100.00;98664.81;5008140;28;20037;-70
2023/01/18 10:56:04;;;;;;;23.05;15.25;;;;;;;0.11;100.00;98671.47;4976290;28;20179;-70
2023/01/18 10:58:50;;;;;;;31.08;15.30;;;;;;;0.13;100.00;98675.69;5004778;28;20140;-70
2023/01/18 11:01:22;;;;;;;22.30;15.15;;;;;;;-0.02;100.00;98650.41;5011409;28;20040;-70
2023/01/18 11:03:51;;;;;;;19.50;15.30;;;;;;;0.20;100.00;98671.16;5026355;28;20575;-70
2023/01/18 11:06:19;;;;;;;19.05;14.73;;;;;;;0.22;100.00;98665.03;4990661;28;20029;-70
2023/01/18 11:08:45;;;;;;;21.25;14.27;;;;;;;0.28;100.00;98669.94;4994719;28;20029;-70
2023/01/18 11:11:13;;;;;;;18.65;13.15;;;;;;;0.39;100.00;98666.97;5011247;28;20902;-70
2023/01/18 11:13:38;;;;;;;19.48;13.43;;;;;;;0.42;100.00;98672.88;5003309;28;20057;-71
2023/01/18 11:16:05;;;;;;;15.93;12.40;;;;;;;0.50;100.00;98676.03;5007514;28;20125;-69
2023/01/18 11:18:31;;;;;;;17.88;12.60;;;;;;;0.53;100.00;98672.47;5010411;28;20039;-69
2023/01/18 11:20:56;;;;;;;32.10;12.82;;;;;;;0.49;100.00;98655.41;4992255;28;20029;-67
2023/01/18 11:23:30;;;;;;;19.63;12.88;;;;;;;0.41;100.00;98623.84;4993236;28;20181;-69
2023/01/18 11:26:13;;;;;;;18.45;12.48;;;;;;;0.72;100.00;98673.47;4994018;28;20359;-69
2023/01/18 11:28:48;;;;;;;17.73;11.82;;;;;;;0.89;100.00;98678.81;5004040;28;20037;-69
2023/01/18 11:31:20;;;;;;;19.63;12.05;;;;;;;0.87;100.00;98659.94;5004485;28;20029;-69
2023/01/18 11:33:56;;;;;;;18.83;12.13;;;;;;;1.01;100.00;98683.50;5018166;28;20029;-69
2023/01/18 11:36:42;;;;;;;18.30;11.18;;;;;;;1.07;100.00;98671.25;5011313;28;20033;-69
2023/01/18 11:39:29;;;;;;;15.63;11.25;;;;;;;1.27;100.00;98681.63;5011880;28;20028;-68
2023/01/18 11:42:20;;;;;;;17.45;11.63;;;;;;;1.38;100.00;98684.63;5010277;28;20131;-69
2023/01/18 11:45:24;;;;;;;21.60;11.32;;;;;;;1.42;100.00;98681.84;4993005;28;20048;-70